WMKP/PEN METAR and TAF weather

Enter ICAO airport designator
Station Type Date Time Source
WMKP METAR 2019/12/06 09:00 UTC NOAA

WMKP 060900Z 04013G30KT 9999 FEW017CB 32/21 Q1007 NOSIG


Station Type Date Time Source
WMKP Decoded METAR 2019/12/06 09:00 UTC NOAA

Penang / Bayan Lepas, Malaysia (WMKP) 05-18N 100-16E 4M
Dec 06, 2019 - 04:00 AM EST / 2019.12.06 0900 UTC
Wind: from the NE (040 degrees) at 15 MPH (13 KT) gusting to 35 MPH (30 KT):0
Visibility: greater than 7 mile(s):0
Sky conditions: mostly clear
Weather: Cumulonimbus clouds observed
Temperature: 89 F (32 C)
Dew Point: 69 F (21 C)
Relative Humidity: 52%
Pressure (altimeter): 29.74 in. Hg (1007 hPa)
ob: WMKP 060900Z 04013G30KT 9999 FEW017CB 32/21 Q1007 NOSIG
cycle: 9

Station Type Date Time Source
WMKP TAF 2019/12/06 06:12 UTC NOAA

TAF WMKP 060500Z 0606/0706 21010KT 9000 FEW020
BECMG 0612/0614 03007G25KT FEW025

Example: see airport list